createdAt,value
2022-12-08T00:00:02.127Z,1008.452
2022-12-08T00:07:01.488Z,1008.335
2022-12-08T00:14:01.758Z,1008.335
2022-12-08T00:21:02.076Z,1008.164
2022-12-08T00:28:01.477Z,1008.164
2022-12-08T00:35:02.285Z,1008.011
2022-12-08T00:42:01.399Z,1008.011
2022-12-08T00:49:01.686Z,1007.853
2022-12-08T00:56:01.952Z,1007.853
2022-12-08T01:00:02.889Z,1007.748
2022-12-08T01:07:01.661Z,1007.748
2022-12-08T01:14:01.337Z,1007.686
2022-12-08T01:21:01.450Z,1007.686
2022-12-08T01:28:01.658Z,1007.643
2022-12-08T01:35:01.920Z,1007.761
2022-12-08T01:42:01.408Z,1007.761
2022-12-08T01:49:01.973Z,1007.622
2022-12-08T01:56:01.342Z,1007.622
2022-12-08T02:00:02.513Z,1007.622
2022-12-08T02:07:06.393Z,1007.531
2022-12-08T02:14:01.624Z,1007.383
2022-12-08T02:21:01.522Z,1007.383
2022-12-08T02:28:01.687Z,1007.316
2022-12-08T02:35:02.176Z,1007.316
2022-12-08T02:42:02.196Z,1007.128
2022-12-08T02:49:01.705Z,1007.128
2022-12-08T02:56:01.671Z,1006.966
2022-12-08T03:00:02.954Z,1006.966
2022-12-08T03:07:01.761Z,1006.795
2022-12-08T03:14:02.272Z,1006.795
2022-12-08T03:21:01.895Z,1006.725
2022-12-08T03:28:02.083Z,1006.725
2022-12-08T03:35:02.496Z,1006.593
2022-12-08T03:42:01.794Z,1006.593
2022-12-08T03:49:02.083Z,1006.434
2022-12-08T03:56:02.125Z,1006.434
2022-12-08T04:00:02.065Z,1006.234
2022-12-08T04:07:01.801Z,1006.234
2022-12-08T04:14:02.237Z,1006.068
2022-12-08T04:21:02.173Z,1006.068
2022-12-08T04:28:02.239Z,1005.954
2022-12-08T04:35:01.794Z,1005.811
2022-12-08T04:42:01.531Z,1005.811
2022-12-08T04:49:01.560Z,1005.856
2022-12-08T04:56:01.292Z,1005.856
2022-12-08T05:00:02.291Z,1005.856
2022-12-08T05:07:02.231Z,1005.727
2022-12-08T05:14:01.464Z,1005.731
2022-12-08T05:21:01.530Z,1005.731
2022-12-08T05:28:32.700Z,1005.737
2022-12-08T05:35:01.502Z,1005.737
2022-12-08T05:42:01.959Z,1005.644
2022-12-08T05:49:01.821Z,1005.644
2022-12-08T05:56:01.418Z,1005.547
2022-12-08T06:00:02.515Z,1005.547
2022-12-08T06:07:01.417Z,1005.479
2022-12-08T06:14:02.080Z,1005.479
2022-12-08T06:21:01.667Z,1005.447
2022-12-08T06:28:01.415Z,1005.447
2022-12-08T06:35:01.546Z,1005.406
2022-12-08T06:42:01.825Z,1005.406
2022-12-08T06:49:01.497Z,1005.38
2022-12-08T06:56:02.096Z,1005.38
2022-12-08T07:00:01.924Z,1005.452
2022-12-08T07:07:01.354Z,1005.452
2022-12-08T07:14:01.814Z,1005.541
2022-12-08T07:21:01.450Z,1005.541
2022-12-08T07:28:01.609Z,1005.617
2022-12-08T07:35:02.043Z,1005.624
2022-12-08T07:42:01.507Z,1005.624
2022-12-08T07:49:02.032Z,1005.569
2022-12-08T07:56:01.641Z,1005.569
2022-12-08T08:00:02.443Z,1005.569
2022-12-08T08:07:02.110Z,1005.624
2022-12-08T08:14:02.024Z,1005.595
2022-12-08T08:21:15.721Z,1005.595
2022-12-08T08:28:02.125Z,1005.637
2022-12-08T08:35:02.546Z,1005.637
2022-12-08T08:42:01.520Z,1005.642
2022-12-08T08:49:01.770Z,1005.642
2022-12-08T08:56:03.034Z,1005.634
2022-12-08T09:00:02.727Z,1005.634
2022-12-08T09:07:01.775Z,1005.512
2022-12-08T09:14:02.081Z,1005.512
2022-12-08T09:21:02.211Z,1005.586
2022-12-08T09:28:01.967Z,1005.586
2022-12-08T09:35:02.331Z,1005.607
2022-12-08T09:42:02.278Z,1005.607
2022-12-08T09:49:01.444Z,1005.609
2022-12-08T09:56:01.676Z,1005.609
2022-12-08T10:00:02.565Z,1005.634
2022-12-08T10:07:02.068Z,1005.634
2022-12-08T10:14:02.121Z,1005.559
2022-12-08T10:21:02.059Z,1005.559
2022-12-08T10:28:01.875Z,1005.397
2022-12-08T10:35:01.775Z,1005.315
2022-12-08T10:42:01.525Z,1005.315
2022-12-08T10:49:01.761Z,1005.266
2022-12-08T10:56:01.591Z,1005.266
2022-12-08T11:00:02.643Z,1005.266
2022-12-08T11:07:01.714Z,1005.235
2022-12-08T11:14:01.407Z,1005.081
2022-12-08T11:21:01.356Z,1005.081
2022-12-08T11:28:01.488Z,1004.94
2022-12-08T11:35:01.754Z,1004.94
2022-12-08T11:42:01.322Z,1004.775
2022-12-08T11:49:06.312Z,1004.775
2022-12-08T11:56:02.160Z,1004.803
2022-12-08T12:00:01.840Z,1004.803
2022-12-08T12:07:02.040Z,1004.642
2022-12-08T12:14:01.844Z,1004.642
2022-12-08T12:21:01.614Z,1004.62
2022-12-08T12:28:01.798Z,1004.62
2022-12-08T12:35:02.023Z,1004.524
2022-12-08T12:42:01.896Z,1004.524
2022-12-08T12:49:01.581Z,1004.492
2022-12-08T12:56:01.987Z,1004.492
2022-12-08T13:00:01.501Z,1004.416
2022-12-08T13:07:01.461Z,1004.416
2022-12-08T13:14:01.943Z,1004.377
2022-12-08T13:21:01.697Z,1004.377
2022-12-08T13:28:01.696Z,1004.296
2022-12-08T13:35:02.229Z,1004.235
2022-12-08T13:42:01.562Z,1004.235
2022-12-08T14:00:02.190Z,1004.072
2022-12-08T14:07:01.446Z,1004.08
2022-12-08T14:14:02.107Z,1004.07
2022-12-08T14:21:20.265Z,1004.07
2022-12-08T14:28:01.567Z,1004.133
2022-12-08T14:35:02.605Z,1004.133
2022-12-08T14:42:02.283Z,1004.092
2022-12-08T14:49:01.954Z,1004.092
2022-12-08T14:56:02.125Z,1004.168
2022-12-08T15:00:01.802Z,1004.168
2022-12-08T15:07:02.114Z,1004.118
2022-12-08T15:14:01.601Z,1004.118
2022-12-08T15:21:01.516Z,1004.134
2022-12-08T15:28:01.851Z,1004.134
2022-12-08T15:35:02.345Z,1004.091
2022-12-08T15:42:01.515Z,1004.091
2022-12-08T15:49:01.431Z,1004.117
2022-12-08T15:56:28.056Z,1004.117
2022-12-08T16:00:02.162Z,1004.159
2022-12-08T16:07:20.909Z,1004.159
2022-12-08T16:14:23.513Z,1004.119
2022-12-08T16:21:31.606Z,1004.119
2022-12-08T16:28:17.508Z,1004.222
2022-12-08T16:35:02.329Z,1004.167
2022-12-08T16:42:01.787Z,1004.167
2022-12-08T16:49:01.941Z,1004.14
2022-12-08T16:56:01.681Z,1004.14
2022-12-08T17:00:02.407Z,1004.14
2022-12-08T17:07:01.815Z,1004.138
2022-12-08T17:14:01.689Z,1004.133
2022-12-08T17:21:01.830Z,1004.133
2022-12-08T17:28:02.165Z,1004.101
2022-12-08T17:35:02.835Z,1004.101
2022-12-08T17:42:02.137Z,1004.144
2022-12-08T17:49:02.128Z,1004.144
2022-12-08T17:56:01.389Z,1004.15
2022-12-08T18:00:01.946Z,1004.15
2022-12-08T18:07:02.180Z,1004.141
2022-12-08T18:14:01.561Z,1004.141
2022-12-08T18:21:01.569Z,1004.081
2022-12-08T18:28:01.618Z,1004.081
2022-12-08T18:35:02.403Z,1004.154
2022-12-08T18:42:01.692Z,1004.154
2022-12-08T18:49:02.201Z,1004.138
2022-12-08T18:56:01.477Z,1004.138
2022-12-08T19:00:02.177Z,1004.145
2022-12-08T19:07:02.222Z,1004.145
2022-12-08T19:14:01.474Z,1004.128
2022-12-08T19:21:01.651Z,1004.128
2022-12-08T19:28:02.297Z,1004.092
2022-12-08T19:35:01.517Z,1004.278
2022-12-08T19:42:01.728Z,1004.278
2022-12-08T19:49:01.924Z,1004.279
2022-12-08T19:56:01.310Z,1004.279
2022-12-08T20:00:01.910Z,1004.279
2022-12-08T20:07:02.119Z,1004.296
2022-12-08T20:14:02.071Z,1004.326
2022-12-08T20:21:01.721Z,1004.326
2022-12-08T20:28:02.217Z,1004.353
2022-12-08T20:35:01.882Z,1004.353
2022-12-08T20:42:01.778Z,1004.318
2022-12-08T20:49:01.625Z,1004.318
2022-12-08T20:56:02.351Z,1004.284
2022-12-08T21:00:02.143Z,1004.284
2022-12-08T21:07:01.625Z,1004.334
2022-12-08T21:14:01.524Z,1004.334
2022-12-08T21:21:01.395Z,1004.351
2022-12-08T21:28:01.852Z,1004.351
2022-12-08T21:35:02.339Z,1004.394
2022-12-08T21:42:01.984Z,1004.394
2022-12-08T21:49:02.161Z,1004.418
2022-12-08T21:56:01.483Z,1004.418
2022-12-08T22:00:02.204Z,1004.355
2022-12-08T22:07:01.976Z,1004.355
2022-12-08T22:14:02.320Z,1004.342
2022-12-08T22:21:01.315Z,1004.342
2022-12-08T22:28:02.025Z,1004.375
2022-12-08T22:35:02.369Z,1004.325
2022-12-08T22:42:01.471Z,1004.325
2022-12-08T22:49:02.054Z,1004.351
2022-12-08T22:56:02.009Z,1004.351
2022-12-08T23:00:01.562Z,1004.351
2022-12-08T23:07:01.811Z,1004.322
2022-12-08T23:14:01.788Z,1004.282
2022-12-08T23:21:02.241Z,1004.282
2022-12-08T23:28:01.145Z,1004.411
2022-12-08T23:35:01.919Z,1004.411
2022-12-08T23:42:02.514Z,1004.179
2022-12-08T23:49:01.906Z,1004.179
2022-12-08T23:56:01.980Z,1004.172
